createdAt,value
2022-08-03T00:00:26.490Z,17.92
2022-08-03T00:02:53.379Z,17.93
2022-08-03T00:05:20.008Z,17.96
2022-08-03T00:07:46.572Z,17.86
2022-08-03T00:10:15.354Z,18.13
2022-08-03T00:12:41.957Z,17.96
2022-08-03T00:15:11.071Z,17.80
2022-08-03T00:17:52.882Z,17.91
2022-08-03T00:20:22.129Z,17.86
2022-08-03T00:22:49.512Z,17.83
2022-08-03T00:25:16.633Z,18.00
2022-08-03T00:27:43.130Z,17.74
2022-08-03T00:30:10.494Z,17.68
2022-08-03T00:32:37.010Z,17.59
2022-08-03T00:35:08.036Z,17.53
2022-08-03T00:37:41.379Z,17.48
2022-08-03T00:40:13.553Z,17.63
2022-08-03T00:43:07.578Z,17.55
2022-08-03T00:45:37.546Z,17.49
2022-08-03T00:48:05.669Z,17.49
2022-08-03T00:50:35.320Z,17.52
2022-08-03T00:53:05.074Z,17.35
2022-08-03T00:55:31.811Z,17.50
2022-08-03T00:58:01.432Z,17.41
2022-08-03T01:00:28.337Z,17.31
2022-08-03T01:02:54.848Z,17.25
2022-08-03T01:05:21.936Z,17.20
2022-08-03T01:08:19.644Z,17.17
2022-08-03T01:11:05.528Z,17.11
2022-08-03T01:14:03.625Z,17.10
2022-08-03T01:17:05.214Z,17.23
2022-08-03T01:19:53.936Z,17.29
2022-08-03T01:22:37.065Z,17.20
2022-08-03T01:25:38.859Z,16.99
2022-08-03T01:28:39.309Z,16.94
2022-08-03T01:31:09.137Z,16.98
2022-08-03T01:33:39.820Z,17.05
2022-08-03T01:36:08.041Z,17.08
2022-08-03T01:38:40.896Z,17.18
2022-08-03T01:41:17.484Z,17.16
2022-08-03T01:44:27.652Z,17.16
2022-08-03T01:46:38.472Z,17.10
2022-08-03T01:49:09.146Z,17.14
2022-08-03T01:51:57.850Z,17.15
2022-08-03T01:54:27.179Z,17.06
2022-08-03T01:56:56.837Z,17.21
2022-08-03T01:59:26.434Z,17.18
2022-08-03T02:02:16.076Z,17.26
2022-08-03T02:04:43.687Z,17.18
2022-08-03T02:07:11.695Z,17.38
2022-08-03T02:09:40.907Z,17.26
2022-08-03T02:12:10.359Z,17.29
2022-08-03T02:14:39.311Z,17.11
2022-08-03T02:17:09.970Z,17.01
2022-08-03T02:19:37.636Z,16.98
2022-08-03T02:22:08.590Z,17.15
2022-08-03T02:24:35.181Z,17.03
2022-08-03T02:27:05.803Z,16.95
2022-08-03T02:29:39.628Z,17.03
2022-08-03T02:32:10.555Z,16.98
2022-08-03T02:34:38.909Z,16.85
2022-08-03T02:37:08.187Z,17.28
2022-08-03T02:39:36.760Z,17.45
2022-08-03T02:42:04.004Z,17.51
2022-08-03T02:44:33.585Z,17.59
2022-08-03T02:47:08.097Z,17.56
2022-08-03T02:49:50.661Z,17.64
2022-08-03T02:52:20.158Z,17.60
2022-08-03T02:54:49.154Z,17.62
2022-08-03T02:57:19.289Z,17.56
2022-08-03T02:59:47.136Z,17.63
2022-08-03T03:02:15.855Z,17.73
2022-08-03T03:04:56.207Z,17.65
2022-08-03T03:07:31.438Z,17.55
2022-08-03T03:10:08.804Z,17.59
2022-08-03T03:12:38.450Z,17.68
2022-08-03T03:15:06.592Z,17.58
2022-08-03T03:17:34.871Z,17.74
2022-08-03T03:20:02.602Z,17.71
2022-08-03T03:22:30.960Z,17.63
2022-08-03T03:24:57.907Z,17.64
2022-08-03T03:27:25.499Z,17.65
2022-08-03T03:29:54.173Z,17.63
2022-08-03T03:32:20.770Z,17.69
2022-08-03T03:34:48.165Z,17.59
2022-08-03T03:37:14.746Z,17.62
2022-08-03T03:39:41.414Z,17.57
2022-08-03T03:42:07.897Z,17.71
2022-08-03T03:44:34.435Z,17.54
2022-08-03T03:47:01.047Z,17.48
2022-08-03T03:49:27.977Z,17.44
2022-08-03T03:51:55.618Z,17.64
2022-08-03T03:54:22.323Z,17.60
2022-08-03T03:56:52.302Z,17.56
2022-08-03T03:59:19.018Z,17.56
2022-08-03T04:01:45.906Z,17.56
2022-08-03T04:04:31.321Z,17.67
2022-08-03T04:07:16.690Z,17.61
2022-08-03T04:10:14.252Z,17.67
2022-08-03T04:12:50.437Z,17.64
2022-08-03T04:15:21.912Z,17.57
2022-08-03T04:17:50.471Z,17.71
2022-08-03T04:20:20.179Z,17.74
2022-08-03T04:22:49.762Z,17.63
2022-08-03T04:25:19.505Z,17.72
2022-08-03T04:28:30.110Z,17.65
2022-08-03T04:30:37.660Z,17.74
2022-08-03T04:33:05.098Z,17.70
2022-08-03T04:36:00.865Z,17.75
2022-08-03T04:38:23.612Z,17.73
2022-08-03T04:40:50.900Z,17.80
2022-08-03T04:43:19.667Z,17.81
2022-08-03T04:45:49.537Z,17.78
2022-08-03T04:48:16.480Z,17.83
2022-08-03T04:50:43.981Z,17.83
2022-08-03T04:53:10.790Z,17.89
2022-08-03T04:55:37.318Z,17.93
2022-08-03T04:58:04.450Z,18.10
2022-08-03T05:00:31.366Z,18.21
2022-08-03T05:02:58.153Z,18.16
2022-08-03T05:05:24.992Z,18.26
2022-08-03T05:07:51.706Z,18.31
2022-08-03T05:10:19.957Z,18.41
2022-08-03T05:12:48.420Z,18.62
2022-08-03T05:15:15.813Z,18.61
2022-08-03T05:17:42.866Z,18.63
2022-08-03T05:20:10.447Z,18.82
2022-08-03T05:22:37.038Z,18.86
2022-08-03T05:25:04.182Z,18.99
2022-08-03T05:27:30.723Z,19.06
2022-08-03T05:30:32.281Z,19.19
2022-08-03T05:32:43.900Z,19.33
2022-08-03T05:35:57.579Z,19.47
2022-08-03T05:37:57.194Z,19.59
2022-08-03T05:40:23.842Z,19.80
2022-08-03T05:42:50.409Z,19.90
2022-08-03T05:45:19.986Z,19.98
2022-08-03T05:47:46.618Z,20.08
2022-08-03T05:50:13.979Z,20.18
2022-08-03T05:52:41.496Z,20.27
2022-08-03T05:55:09.312Z,20.42
2022-08-03T05:57:36.090Z,20.55
2022-08-03T06:00:05.925Z,20.61
2022-08-03T06:02:32.704Z,20.68
2022-08-03T06:04:59.261Z,20.85
2022-08-03T06:07:25.727Z,20.96
2022-08-03T06:10:34.256Z,20.97
2022-08-03T06:12:41.265Z,21.14
2022-08-03T06:15:11.589Z,21.30
2022-08-03T06:17:45.691Z,21.43
2022-08-03T06:20:19.574Z,21.49
2022-08-03T06:22:50.723Z,21.60
2022-08-03T06:25:19.417Z,21.67
2022-08-03T06:27:48.013Z,21.80
2022-08-03T06:30:19.281Z,21.90
2022-08-03T06:32:51.626Z,22.02
2022-08-03T06:35:19.353Z,22.14
2022-08-03T06:37:48.406Z,22.26
2022-08-03T06:40:24.447Z,22.37
2022-08-03T06:42:51.419Z,22.54
2022-08-03T06:45:17.992Z,22.72
2022-08-03T06:50:29.044Z,23.02
2022-08-03T06:52:55.887Z,23.21
2022-08-03T06:55:22.450Z,23.35
2022-08-03T06:57:48.879Z,23.47
2022-08-03T07:00:15.661Z,23.64
2022-08-03T07:02:42.272Z,23.74
2022-08-03T07:05:09.866Z,23.90
2022-08-03T07:07:37.010Z,23.99
2022-08-03T07:10:05.337Z,24.13
2022-08-03T07:12:33.863Z,24.21
2022-08-03T07:15:02.836Z,24.37
2022-08-03T07:17:31.587Z,24.53
2022-08-03T07:19:58.548Z,24.64
2022-08-03T07:22:26.429Z,24.69
2022-08-03T07:24:53.174Z,24.78
2022-08-03T07:27:19.675Z,24.90
2022-08-03T07:29:46.115Z,24.93
2022-08-03T07:32:12.696Z,25.18
2022-08-03T07:34:39.220Z,25.33
2022-08-03T07:37:05.814Z,25.51
2022-08-03T07:39:32.354Z,25.55
2022-08-03T07:41:58.873Z,25.65
2022-08-03T07:44:25.390Z,25.73
2022-08-03T07:46:52.075Z,25.88
2022-08-03T07:49:18.800Z,26.02
2022-08-03T07:51:45.360Z,26.12
2022-08-03T07:54:11.919Z,26.34
2022-08-03T07:56:39.280Z,26.80
2022-08-03T07:59:05.927Z,26.99
2022-08-03T08:01:35.979Z,27.19
2022-08-03T08:04:02.532Z,27.30
2022-08-03T08:06:29.160Z,27.35
2022-08-03T08:08:59.457Z,27.21
2022-08-03T08:11:25.920Z,27.30
2022-08-03T08:13:52.430Z,27.84
2022-08-03T08:16:18.954Z,27.92
2022-08-03T08:18:45.469Z,28.17
2022-08-03T08:21:11.990Z,28.14
2022-08-03T08:23:44.173Z,28.31
2022-08-03T08:26:13.075Z,28.49
2022-08-03T08:28:39.825Z,28.58
2022-08-03T08:31:06.711Z,29.40
2022-08-03T08:34:02.457Z,30.18
2022-08-03T08:36:21.214Z,31.31
2022-08-03T08:38:47.831Z,32.17
2022-08-03T08:41:15.720Z,33.21
2022-08-03T08:43:42.708Z,33.58
2022-08-03T08:46:23.212Z,34.00
2022-08-03T08:48:51.467Z,35.23
2022-08-03T08:51:21.154Z,36.26
2022-08-03T08:53:53.730Z,36.05
2022-08-03T08:56:22.882Z,36.03
2022-08-03T08:58:53.005Z,36.52
2022-08-03T09:01:20.437Z,36.27
2022-08-03T09:03:47.675Z,36.36
2022-08-03T09:06:15.203Z,36.98
2022-08-03T09:08:41.790Z,36.53
2022-08-03T09:11:08.635Z,37.59
2022-08-03T09:13:38.919Z,37.87
2022-08-03T09:18:40.109Z,39.12
2022-08-03T09:21:34.835Z,39.43
2022-08-03T09:24:05.764Z,39.25
2022-08-03T09:26:35.158Z,39.64
2022-08-03T09:29:13.847Z,39.18
2022-08-03T09:31:46.367Z,39.75
2022-08-03T09:34:15.493Z,39.19
2022-08-03T09:36:47.961Z,38.25
2022-08-03T09:39:17.276Z,38.03
2022-08-03T09:41:49.007Z,38.94
2022-08-03T09:44:24.965Z,39.27
2022-08-03T09:46:56.886Z,39.93
2022-08-03T09:49:24.365Z,39.99
2022-08-03T09:52:33.933Z,40.03
2022-08-03T09:54:38.421Z,39.63
2022-08-03T09:57:05.161Z,40.05
2022-08-03T09:59:33.589Z,40.87
2022-08-03T10:02:01.933Z,40.81
2022-08-03T10:04:28.759Z,40.95
2022-08-03T10:07:02.880Z,41.14
2022-08-03T10:09:29.522Z,40.29
2022-08-03T10:11:56.759Z,40.21
2022-08-03T10:14:23.675Z,40.12
2022-08-03T10:16:50.498Z,39.82
2022-08-03T10:19:17.433Z,40.62
2022-08-03T10:21:51.376Z,40.85
2022-08-03T10:24:24.267Z,40.55
2022-08-03T10:26:51.704Z,40.03
2022-08-03T10:29:24.783Z,40.36
2022-08-03T10:31:58.126Z,40.51
2022-08-03T10:34:34.544Z,41.14
2022-08-03T10:37:08.451Z,41.84
2022-08-03T10:39:36.074Z,41.54
2022-08-03T10:42:05.614Z,41.88
2022-08-03T10:44:42.383Z,40.39
2022-08-03T10:47:10.527Z,41.28
2022-08-03T10:49:38.125Z,41.15
2022-08-03T10:52:11.387Z,41.68
2022-08-03T10:55:18.854Z,41.32
2022-08-03T10:57:50.082Z,41.46
2022-08-03T11:00:24.680Z,42.81
2022-08-03T11:03:08.868Z,42.81
2022-08-03T11:05:39.043Z,-146.37
2022-08-03T11:08:28.573Z,-146.37
2022-08-03T11:11:19.739Z,43.24
2022-08-03T11:14:05.844Z,41.97
2022-08-03T11:16:45.553Z,42.92
2022-08-03T11:19:19.843Z,41.87
2022-08-03T11:21:50.478Z,42.81
2022-08-03T11:24:37.405Z,43.25
2022-08-03T11:27:24.114Z,42.34
2022-08-03T11:30:00.772Z,41.83
2022-08-03T11:32:48.434Z,42.56
2022-08-03T11:35:24.698Z,42.55
2022-08-03T11:38:01.452Z,43.19
2022-08-03T11:40:33.166Z,42.29
2022-08-03T11:42:59.657Z,43.22
2022-08-03T11:45:26.470Z,42.66
2022-08-03T11:47:55.521Z,42.97
2022-08-03T11:50:22.535Z,42.44
2022-08-03T11:52:50.202Z,43.09
2022-08-03T11:55:20.552Z,43.12
2022-08-03T11:59:02.731Z,42.66
2022-08-03T12:00:34.406Z,42.46
2022-08-03T12:03:14.235Z,42.46
2022-08-03T12:05:51.075Z,42.95
2022-08-03T12:08:27.828Z,42.43
2022-08-03T12:10:56.849Z,42.36
2022-08-03T12:14:28.932Z,41.70
2022-08-03T12:16:19.764Z,41.39
2022-08-03T12:19:03.247Z,41.03
2022-08-03T12:21:30.856Z,41.83
2022-08-03T12:24:00.313Z,42.41
2022-08-03T12:26:28.256Z,42.84
2022-08-03T12:28:55.096Z,43.56
2022-08-03T12:31:21.572Z,43.53
2022-08-03T12:34:00.212Z,43.82
2022-08-03T12:36:30.217Z,44.14
2022-08-03T12:38:59.035Z,43.84
2022-08-03T12:41:34.066Z,44.08
2022-08-03T12:44:05.381Z,43.47
2022-08-03T12:46:37.265Z,43.99
2022-08-03T12:52:19.142Z,43.97
2022-08-03T12:55:00.330Z,44.09
2022-08-03T12:57:41.475Z,43.65
2022-08-03T13:00:21.202Z,43.86
2022-08-03T13:05:54.285Z,43.74
2022-08-03T13:08:31.237Z,42.10
2022-08-03T13:10:58.200Z,42.79
2022-08-03T13:13:40.081Z,43.56
2022-08-03T13:16:06.974Z,43.43
2022-08-03T13:21:30.267Z,42.88
2022-08-03T13:26:57.715Z,41.12
2022-08-03T13:29:24.528Z,41.67
2022-08-03T13:31:55.879Z,42.07
2022-08-03T13:35:12.904Z,41.55
2022-08-03T13:37:47.767Z,40.88
2022-08-03T13:40:36.737Z,40.92
2022-08-03T13:43:28.148Z,41.32
2022-08-03T13:46:06.032Z,42.06
2022-08-03T13:55:04.051Z,42.97
2022-08-03T13:58:49.988Z,42.91
2022-08-03T14:02:13.865Z,42.60
2022-08-03T14:04:40.537Z,42.83
2022-08-03T14:07:07.283Z,42.30
2022-08-03T14:09:36.432Z,41.50
2022-08-03T14:12:08.032Z,40.40
2022-08-03T14:14:36.982Z,40.39
2022-08-03T14:17:04.113Z,39.85
2022-08-03T14:19:30.743Z,38.57
2022-08-03T14:23:01.335Z,37.75
2022-08-03T14:24:59.508Z,36.83
2022-08-03T14:28:11.614Z,36.00
2022-08-03T14:30:41.059Z,35.96
2022-08-03T14:33:10.193Z,35.65
2022-08-03T14:50:28.751Z,35.01
2022-08-03T14:51:14.063Z,34.62
2022-08-03T14:54:29.430Z,34.12
2022-08-03T15:00:05.866Z,33.98
2022-08-03T15:18:01.287Z,33.56
2022-08-03T15:20:42.451Z,33.45
2022-08-03T15:23:10.187Z,33.36
2022-08-03T15:26:29.034Z,33.36
2022-08-03T15:28:23.362Z,33.33
2022-08-03T15:30:52.484Z,33.33
2022-08-03T15:33:19.347Z,33.34
2022-08-03T15:35:47.325Z,33.42
2022-08-03T15:38:13.837Z,33.22
2022-08-03T15:40:40.508Z,33.15
2022-08-03T15:43:07.229Z,33.04
2022-08-03T15:45:36.174Z,33.16
2022-08-03T15:48:03.498Z,33.00
2022-08-03T15:50:30.200Z,33.07
2022-08-03T15:52:56.976Z,32.99
2022-08-03T15:55:23.718Z,33.12
2022-08-03T15:59:10.982Z,32.95
2022-08-03T16:00:40.448Z,32.87
2022-08-03T16:03:07.004Z,32.68
2022-08-03T16:05:33.806Z,32.61
2022-08-03T16:08:03.779Z,32.57
2022-08-03T16:10:36.160Z,32.38
2022-08-03T16:13:02.964Z,32.44
2022-08-03T16:15:29.686Z,32.38
2022-08-03T16:18:08.929Z,32.64
2022-08-03T16:20:35.969Z,32.64
2022-08-03T16:23:11.072Z,32.70
2022-08-03T16:25:49.334Z,32.71
2022-08-03T16:28:24.474Z,32.61
2022-08-03T16:33:42.825Z,32.47
2022-08-03T16:36:14.370Z,32.24
2022-08-03T16:38:45.011Z,32.21
2022-08-03T16:41:13.356Z,32.52
2022-08-03T16:43:42.399Z,32.88
2022-08-03T16:46:08.886Z,32.72
2022-08-03T16:48:35.471Z,32.40
2022-08-03T16:51:03.007Z,32.18
2022-08-03T16:53:33.085Z,31.96
2022-08-03T16:56:00.554Z,31.75
2022-08-03T16:58:41.815Z,31.75
2022-08-03T17:01:24.019Z,31.69
2022-08-03T17:04:04.695Z,31.64
2022-08-03T17:06:37.710Z,31.53
2022-08-03T17:09:10.258Z,31.48
2022-08-03T17:11:43.855Z,31.42
2022-08-03T17:14:12.430Z,31.53
2022-08-03T17:16:39.220Z,31.27
2022-08-03T17:19:23.220Z,31.27
2022-08-03T17:22:24.058Z,31.22
2022-08-03T17:24:52.672Z,31.08
2022-08-03T17:28:48.091Z,31.05
2022-08-03T17:30:18.913Z,30.93
2022-08-03T17:32:56.930Z,30.77
2022-08-03T17:35:34.392Z,30.74
2022-08-03T17:38:06.588Z,30.70
2022-08-03T17:40:34.542Z,30.57
2022-08-03T17:44:13.140Z,30.54
2022-08-03T17:45:54.979Z,30.41
2022-08-03T17:48:24.845Z,30.25
2022-08-03T17:50:59.809Z,30.23
2022-08-03T17:53:33.392Z,30.06
2022-08-03T17:56:44.508Z,30.12
2022-08-03T17:59:51.497Z,29.85
2022-08-03T18:02:59.173Z,29.75
2022-08-03T18:06:10.615Z,29.66
2022-08-03T18:08:28.403Z,29.44
2022-08-03T18:11:22.651Z,29.35
2022-08-03T18:14:01.412Z,29.20
2022-08-03T18:16:39.134Z,29.11
2022-08-03T18:19:09.559Z,29.04
2022-08-03T18:22:03.479Z,29.05
2022-08-03T18:24:31.167Z,28.88
2022-08-03T18:27:02.351Z,28.83
2022-08-03T18:29:30.638Z,28.61
2022-08-03T18:32:04.265Z,28.57
2022-08-03T18:34:34.588Z,28.41
2022-08-03T18:37:08.027Z,28.17
2022-08-03T18:39:39.156Z,27.89
2022-08-03T18:42:19.055Z,27.74
2022-08-03T18:44:54.403Z,27.62
2022-08-03T18:47:55.822Z,27.48
2022-08-03T18:50:49.745Z,27.28
2022-08-03T18:54:02.975Z,27.24
2022-08-03T18:56:31.014Z,27.37
2022-08-03T18:59:07.163Z,27.29
2022-08-03T19:02:00.132Z,27.04
2022-08-03T19:04:34.245Z,26.70
2022-08-03T19:07:07.958Z,26.75
2022-08-03T19:09:47.081Z,26.67
2022-08-03T19:12:30.646Z,26.86
2022-08-03T19:15:05.953Z,26.73
2022-08-03T19:17:53.223Z,26.57
2022-08-03T19:20:37.907Z,26.30
2022-08-03T19:23:04.486Z,26.30
2022-08-03T19:25:40.618Z,26.28
2022-08-03T19:28:09.054Z,26.08
2022-08-03T19:30:38.813Z,26.11
2022-08-03T19:33:14.010Z,26.03
2022-08-03T19:35:51.951Z,25.84
2022-08-03T19:38:28.502Z,25.62
2022-08-03T19:41:03.046Z,25.30
2022-08-03T19:43:49.572Z,25.25
2022-08-03T19:46:30.533Z,25.37
2022-08-03T19:49:15.038Z,25.36
2022-08-03T19:52:01.924Z,25.47
2022-08-03T19:54:39.637Z,25.34
2022-08-03T19:57:18.625Z,25.35
2022-08-03T19:59:49.955Z,25.34
2022-08-03T20:02:26.579Z,25.03
2022-08-03T20:04:55.947Z,24.70
2022-08-03T20:07:23.008Z,24.53
2022-08-03T20:09:54.569Z,24.50
2022-08-03T20:12:27.573Z,24.42
2022-08-03T20:14:57.434Z,24.47
2022-08-03T20:17:55.606Z,24.42
2022-08-03T20:20:11.100Z,24.55
2022-08-03T20:22:43.312Z,24.36
2022-08-03T20:25:13.129Z,24.30
2022-08-03T20:30:38.467Z,24.14
2022-08-03T20:33:09.209Z,24.00
2022-08-03T20:35:35.798Z,23.95
2022-08-03T20:38:03.325Z,24.05
2022-08-03T20:40:29.966Z,23.97
2022-08-03T20:42:56.649Z,23.86
2022-08-03T20:45:59.579Z,23.71
2022-08-03T20:48:10.300Z,23.69
2022-08-03T20:50:39.025Z,23.60
2022-08-03T20:53:07.773Z,23.63
2022-08-03T20:55:47.472Z,23.69
2022-08-03T20:58:25.746Z,23.49
2022-08-03T21:00:53.495Z,23.37
2022-08-03T21:03:20.217Z,23.29
2022-08-03T21:05:51.898Z,23.17
2022-08-03T21:08:22.409Z,23.13
2022-08-03T21:10:50.061Z,23.16
2022-08-03T21:13:12.501Z,24.19
2022-08-03T21:13:23.450Z,23.03
2022-08-03T21:16:06.563Z,23.02
2022-08-03T21:18:49.195Z,23.06
2022-08-03T21:21:18.482Z,23.04
2022-08-03T21:23:49.918Z,23.10
2022-08-03T21:26:22.499Z,23.02
2022-08-03T21:28:50.825Z,22.96
2022-08-03T21:31:25.577Z,22.94
2022-08-03T21:34:04.975Z,22.81
2022-08-03T21:36:34.443Z,22.84
2022-08-03T21:39:02.759Z,22.85
2022-08-03T21:41:32.239Z,22.81
2022-08-03T21:44:00.280Z,22.77
2022-08-03T21:46:30.797Z,22.68
2022-08-03T21:50:06.719Z,22.76
2022-08-03T21:51:50.497Z,22.76
2022-08-03T21:54:21.287Z,22.68
2022-08-03T21:56:51.064Z,22.68
2022-08-03T21:59:19.979Z,22.68
2022-08-03T22:01:55.328Z,22.63
2022-08-03T22:04:50.801Z,22.68
2022-08-03T22:07:12.455Z,22.64
2022-08-03T22:09:39.162Z,22.57
2022-08-03T22:12:06.359Z,22.53
2022-08-03T22:14:34.756Z,22.51
2022-08-03T22:17:07.220Z,22.46
2022-08-03T22:19:34.645Z,22.48
2022-08-03T22:22:05.962Z,22.34
2022-08-03T22:24:35.981Z,22.28
2022-08-03T22:27:21.962Z,22.39
2022-08-03T22:29:50.176Z,22.30
2022-08-03T22:32:16.802Z,22.39
2022-08-03T22:34:46.107Z,22.25
2022-08-03T22:37:16.431Z,22.05
2022-08-03T22:39:44.022Z,22.07
2022-08-03T22:42:11.378Z,21.93
2022-08-03T22:44:37.899Z,21.79
2022-08-03T22:47:05.355Z,21.88
2022-08-03T22:49:32.633Z,21.75
2022-08-03T22:51:59.452Z,21.74
2022-08-03T22:54:26.087Z,21.58
2022-08-03T22:56:52.726Z,21.54
2022-08-03T22:59:39.141Z,21.58
2022-08-03T23:02:21.213Z,21.63
2022-08-03T23:04:53.120Z,21.65
2022-08-03T23:07:27.591Z,21.69
2022-08-03T23:09:56.388Z,21.62
2022-08-03T23:12:23.848Z,21.48
2022-08-03T23:14:56.179Z,21.46
2022-08-03T23:17:24.230Z,21.44
2022-08-03T23:19:53.780Z,21.50
2022-08-03T23:22:30.328Z,21.33
2022-08-03T23:24:58.726Z,21.36
2022-08-03T23:27:27.480Z,21.37
2022-08-03T23:29:54.346Z,21.22
2022-08-03T23:32:21.233Z,21.21
2022-08-03T23:35:07.764Z,21.19
2022-08-03T23:38:03.992Z,21.20
2022-08-03T23:40:25.003Z,21.13
2022-08-03T23:42:52.131Z,21.07
2022-08-03T23:45:20.022Z,21.04
2022-08-03T23:47:48.338Z,21.00
2022-08-03T23:50:15.826Z,20.97
2022-08-03T23:53:18.125Z,20.89
2022-08-03T23:56:03.427Z,20.89
2022-08-03T23:58:32.848Z,20.92
